sensor_id;sensor_type;location;lat;lon;timestamp;temperature;humidity
5276;DHT22;2661;50.786;12.728;2024-02-23T00:00:36;11.40;99.90
5276;DHT22;2661;50.786;12.728;2024-02-23T00:03:03;11.30;99.90
5276;DHT22;2661;50.786;12.728;2024-02-23T00:05:30;11.20;99.90
5276;DHT22;2661;50.786;12.728;2024-02-23T00:07:56;11.10;99.90
5276;DHT22;2661;50.786;12.728;2024-02-23T00:10:23;11.20;99.90
5276;DHT22;2661;50.786;12.728;2024-02-23T00:12:50;11.10;99.90
5276;DHT22;2661;50.786;12.728;2024-02-23T00:15:16;11.20;99.90
5276;DHT22;2661;50.786;12.728;2024-02-23T00:17:43;11.20;99.90
5276;DHT22;2661;50.786;12.728;2024-02-23T00:20:10;11.20;99.90
5276;DHT22;2661;50.786;12.728;2024-02-23T00:22:38;11.20;99.90
5276;DHT22;2661;50.786;12.728;2024-02-23T00:25:05;11.10;99.90
5276;DHT22;2661;50.786;12.728;2024-02-23T00:27:32;11.10;99.90
5276;DHT22;2661;50.786;12.728;2024-02-23T00:29:58;11.10;99.90
5276;DHT22;2661;50.786;12.728;2024-02-23T00:32:25;11.10;99.90
5276;DHT22;2661;50.786;12.728;2024-02-23T00:34:52;11.10;99.90
5276;DHT22;2661;50.786;12.728;2024-02-23T00:37:18;11.10;99.90
5276;DHT22;2661;50.786;12.728;2024-02-23T00:39:48;11.00;99.90
5276;DHT22;2661;50.786;12.728;2024-02-23T00:42:14;11.10;99.90
5276;DHT22;2661;50.786;12.728;2024-02-23T00:44:41;11.00;99.90
5276;DHT22;2661;50.786;12.728;2024-02-23T00:47:07;11.00;99.90
5276;DHT22;2661;50.786;12.728;2024-02-23T00:49:34;11.00;99.90
5276;DHT22;2661;50.786;12.728;2024-02-23T00:52:01;11.00;99.90
5276;DHT22;2661;50.786;12.728;2024-02-23T00:54:52;11.00;99.90
5276;DHT22;2661;50.786;12.728;2024-02-23T00:57:18;11.00;99.90
5276;DHT22;2661;50.786;12.728;2024-02-23T00:59:52;10.90;99.90
5276;DHT22;2661;50.786;12.728;2024-02-23T01:02:19;10.90;99.90
5276;DHT22;2661;50.786;12.728;2024-02-23T01:04:45;10.90;99.90
5276;DHT22;2661;50.786;12.728;2024-02-23T01:07:12;10.90;99.90
5276;DHT22;2661;50.786;12.728;2024-02-23T01:09:39;10.80;99.90
5276;DHT22;2661;50.786;12.728;2024-02-23T01:12:06;10.80;99.90
5276;DHT22;2661;50.786;12.728;2024-02-23T01:14:33;10.80;99.90
5276;DHT22;2661;50.786;12.728;2024-02-23T01:16:59;10.70;99.90
5276;DHT22;2661;50.786;12.728;2024-02-23T01:19:26;10.70;99.90
5276;DHT22;2661;50.786;12.728;2024-02-23T01:21:53;10.70;99.90
5276;DHT22;2661;50.786;12.728;2024-02-23T01:24:26;10.70;99.90
5276;DHT22;2661;50.786;12.728;2024-02-23T01:26:54;10.70;99.90
5276;DHT22;2661;50.786;12.728;2024-02-23T01:29:22;10.60;99.90
5276;DHT22;2661;50.786;12.728;2024-02-23T01:31:51;10.60;99.90
5276;DHT22;2661;50.786;12.728;2024-02-23T01:34:28;10.50;99.90
5276;DHT22;2661;50.786;12.728;2024-02-23T01:36:55;10.40;99.90
5276;DHT22;2661;50.786;12.728;2024-02-23T01:39:22;10.50;99.90
5276;DHT22;2661;50.786;12.728;2024-02-23T01:41:48;10.40;99.90
5276;DHT22;2661;50.786;12.728;2024-02-23T01:44:15;10.40;99.90
5276;DHT22;2661;50.786;12.728;2024-02-23T01:46:43;10.40;99.90
5276;DHT22;2661;50.786;12.728;2024-02-23T01:49:10;10.30;99.90
5276;DHT22;2661;50.786;12.728;2024-02-23T01:51:37;10.30;99.90
5276;DHT22;2661;50.786;12.728;2024-02-23T01:54:04;10.30;99.90
5276;DHT22;2661;50.786;12.728;2024-02-23T01:56:32;10.30;99.90
5276;DHT22;2661;50.786;12.728;2024-02-23T01:58:59;10.30;99.90
5276;DHT22;2661;50.786;12.728;2024-02-23T02:01:26;10.20;99.90
5276;DHT22;2661;50.786;12.728;2024-02-23T02:03:53;10.20;99.90
5276;DHT22;2661;50.786;12.728;2024-02-23T02:06:19;10.10;99.90
5276;DHT22;2661;50.786;12.728;2024-02-23T02:08:46;10.20;99.90
5276;DHT22;2661;50.786;12.728;2024-02-23T02:11:13;10.10;99.90
5276;DHT22;2661;50.786;12.728;2024-02-23T02:13:40;10.10;99.90
5276;DHT22;2661;50.786;12.728;2024-02-23T02:16:06;10.10;99.90
5276;DHT22;2661;50.786;12.728;2024-02-23T02:18:33;10.10;99.90
5276;DHT22;2661;50.786;12.728;2024-02-23T02:20:59;10.10;99.90
5276;DHT22;2661;50.786;12.728;2024-02-23T02:23:27;10.10;99.90
5276;DHT22;2661;50.786;12.728;2024-02-23T02:25:54;10.00;99.90
5276;DHT22;2661;50.786;12.728;2024-02-23T02:28:21;10.00;99.90
5276;DHT22;2661;50.786;12.728;2024-02-23T02:30:48;10.00;99.90
5276;DHT22;2661;50.786;12.728;2024-02-23T02:33:15;10.00;99.90
5276;DHT22;2661;50.786;12.728;2024-02-23T02:35:42;10.00;99.90
5276;DHT22;2661;50.786;12.728;2024-02-23T02:38:10;9.90;99.90
5276;DHT22;2661;50.786;12.728;2024-02-23T02:40:36;9.90;99.90
5276;DHT22;2661;50.786;12.728;2024-02-23T02:43:03;9.90;99.90
5276;DHT22;2661;50.786;12.728;2024-02-23T02:45:30;9.80;99.90
5276;DHT22;2661;50.786;12.728;2024-02-23T02:47:56;9.70;99.90
5276;DHT22;2661;50.786;12.728;2024-02-23T02:53:52;9.70;99.90
5276;DHT22;2661;50.786;12.728;2024-02-23T02:56:19;9.60;99.90
5276;DHT22;2661;50.786;12.728;2024-02-23T02:58:45;9.50;99.90
5276;DHT22;2661;50.786;12.728;2024-02-23T03:01:12;9.50;99.90
5276;DHT22;2661;50.786;12.728;2024-02-23T03:03:38;9.40;99.90
5276;DHT22;2661;50.786;12.728;2024-02-23T03:06:05;9.40;99.90
5276;DHT22;2661;50.786;12.728;2024-02-23T03:08:33;9.30;99.90
5276;DHT22;2661;50.786;12.728;2024-02-23T03:10:59;9.20;99.90
5276;DHT22;2661;50.786;12.728;2024-02-23T03:13:26;9.10;99.90
5276;DHT22;2661;50.786;12.728;2024-02-23T03:15:53;9.10;99.90
5276;DHT22;2661;50.786;12.728;2024-02-23T03:18:19;9.00;99.90
5276;DHT22;2661;50.786;12.728;2024-02-23T03:20:46;9.00;99.90
5276;DHT22;2661;50.786;12.728;2024-02-23T03:23:13;8.90;99.90
5276;DHT22;2661;50.786;12.728;2024-02-23T03:25:40;8.90;99.90
5276;DHT22;2661;50.786;12.728;2024-02-23T03:28:06;8.80;99.90
5276;DHT22;2661;50.786;12.728;2024-02-23T03:30:33;8.80;99.90
5276;DHT22;2661;50.786;12.728;2024-02-23T03:33:03;8.80;99.90
5276;DHT22;2661;50.786;12.728;2024-02-23T03:35:29;8.80;99.90
5276;DHT22;2661;50.786;12.728;2024-02-23T03:37:56;8.80;99.90
5276;DHT22;2661;50.786;12.728;2024-02-23T03:40:23;8.70;99.90
5276;DHT22;2661;50.786;12.728;2024-02-23T03:42:49;8.70;99.90
5276;DHT22;2661;50.786;12.728;2024-02-23T03:45:16;8.70;99.90
5276;DHT22;2661;50.786;12.728;2024-02-23T03:47:43;8.60;99.90
5276;DHT22;2661;50.786;12.728;2024-02-23T03:50:10;8.50;99.90
5276;DHT22;2661;50.786;12.728;2024-02-23T03:52:36;8.50;99.90
5276;DHT22;2661;50.786;12.728;2024-02-23T03:55:06;8.50;99.90
5276;DHT22;2661;50.786;12.728;2024-02-23T03:57:32;8.50;99.90
5276;DHT22;2661;50.786;12.728;2024-02-23T03:59:59;8.50;99.90
5276;DHT22;2661;50.786;12.728;2024-02-23T04:02:26;8.40;99.90
5276;DHT22;2661;50.786;12.728;2024-02-23T04:04:53;8.30;99.90
5276;DHT22;2661;50.786;12.728;2024-02-23T04:07:20;8.30;99.90
5276;DHT22;2661;50.786;12.728;2024-02-23T04:09:47;8.20;99.90
5276;DHT22;2661;50.786;12.728;2024-02-23T04:12:21;8.20;99.90
5276;DHT22;2661;50.786;12.728;2024-02-23T04:14:48;8.20;99.90
5276;DHT22;2661;50.786;12.728;2024-02-23T04:17:15;8.20;99.90
5276;DHT22;2661;50.786;12.728;2024-02-23T04:19:41;8.10;99.90
5276;DHT22;2661;50.786;12.728;2024-02-23T04:22:17;8.10;99.90
5276;DHT22;2661;50.786;12.728;2024-02-23T04:24:44;8.00;99.90
5276;DHT22;2661;50.786;12.728;2024-02-23T04:27:10;8.00;99.90
5276;DHT22;2661;50.786;12.728;2024-02-23T04:29:37;7.90;99.90
5276;DHT22;2661;50.786;12.728;2024-02-23T04:32:04;7.90;99.90
5276;DHT22;2661;50.786;12.728;2024-02-23T04:34:31;7.90;99.90
5276;DHT22;2661;50.786;12.728;2024-02-23T04:36:58;7.90;99.90
5276;DHT22;2661;50.786;12.728;2024-02-23T04:39:24;7.80;99.90
5276;DHT22;2661;50.786;12.728;2024-02-23T04:41:51;7.80;99.90
5276;DHT22;2661;50.786;12.728;2024-02-23T04:44:17;7.70;99.90
5276;DHT22;2661;50.786;12.728;2024-02-23T04:46:44;7.70;99.90
5276;DHT22;2661;50.786;12.728;2024-02-23T04:49:11;7.70;99.90
5276;DHT22;2661;50.786;12.728;2024-02-23T04:51:38;7.70;99.90
5276;DHT22;2661;50.786;12.728;2024-02-23T04:54:06;7.70;99.90
5276;DHT22;2661;50.786;12.728;2024-02-23T04:56:32;7.70;99.90
5276;DHT22;2661;50.786;12.728;2024-02-23T04:59:00;7.70;99.90
5276;DHT22;2661;50.786;12.728;2024-02-23T05:01:26;7.60;99.90
5276;DHT22;2661;50.786;12.728;2024-02-23T05:03:53;7.60;99.90
5276;DHT22;2661;50.786;12.728;2024-02-23T05:06:20;7.60;99.90
5276;DHT22;2661;50.786;12.728;2024-02-23T05:08:46;7.60;99.90
5276;DHT22;2661;50.786;12.728;2024-02-23T05:11:14;7.50;99.90
5276;DHT22;2661;50.786;12.728;2024-02-23T05:13:41;7.50;99.90
5276;DHT22;2661;50.786;12.728;2024-02-23T05:16:08;7.50;99.90
5276;DHT22;2661;50.786;12.728;2024-02-23T05:18:34;7.40;99.90
5276;DHT22;2661;50.786;12.728;2024-02-23T05:21:01;7.40;99.90
5276;DHT22;2661;50.786;12.728;2024-02-23T05:23:28;7.40;99.90
5276;DHT22;2661;50.786;12.728;2024-02-23T05:25:54;7.30;99.90
5276;DHT22;2661;50.786;12.728;2024-02-23T05:28:21;7.30;99.90
5276;DHT22;2661;50.786;12.728;2024-02-23T05:30:48;7.40;99.90
5276;DHT22;2661;50.786;12.728;2024-02-23T05:33:14;7.30;99.90
5276;DHT22;2661;50.786;12.728;2024-02-23T05:35:41;7.40;99.90
5276;DHT22;2661;50.786;12.728;2024-02-23T05:38:08;7.40;99.90
5276;DHT22;2661;50.786;12.728;2024-02-23T05:40:35;7.30;99.90
5276;DHT22;2661;50.786;12.728;2024-02-23T05:43:02;7.40;99.90
5276;DHT22;2661;50.786;12.728;2024-02-23T05:45:29;7.30;99.90
5276;DHT22;2661;50.786;12.728;2024-02-23T05:47:56;7.40;99.90
5276;DHT22;2661;50.786;12.728;2024-02-23T05:50:23;7.30;99.90
5276;DHT22;2661;50.786;12.728;2024-02-23T05:52:50;7.30;99.90
5276;DHT22;2661;50.786;12.728;2024-02-23T05:55:19;7.30;99.90
5276;DHT22;2661;50.786;12.728;2024-02-23T05:57:45;7.30;99.90
5276;DHT22;2661;50.786;12.728;2024-02-23T06:00:13;7.30;99.90
5276;DHT22;2661;50.786;12.728;2024-02-23T06:02:42;7.30;99.90
5276;DHT22;2661;50.786;12.728;2024-02-23T06:05:08;7.20;99.90
5276;DHT22;2661;50.786;12.728;2024-02-23T06:07:35;7.20;99.90
5276;DHT22;2661;50.786;12.728;2024-02-23T06:10:03;7.20;99.90
5276;DHT22;2661;50.786;12.728;2024-02-23T06:12:30;7.20;99.90
5276;DHT22;2661;50.786;12.728;2024-02-23T06:14:57;7.20;99.90
5276;DHT22;2661;50.786;12.728;2024-02-23T06:17:24;7.20;99.90
5276;DHT22;2661;50.786;12.728;2024-02-23T06:19:51;7.20;99.90
5276;DHT22;2661;50.786;12.728;2024-02-23T06:22:20;7.20;99.90
5276;DHT22;2661;50.786;12.728;2024-02-23T06:24:47;7.20;99.90
5276;DHT22;2661;50.786;12.728;2024-02-23T06:27:14;7.30;99.90
5276;DHT22;2661;50.786;12.728;2024-02-23T06:29:41;7.30;99.90
5276;DHT22;2661;50.786;12.728;2024-02-23T06:32:07;7.30;99.90
5276;DHT22;2661;50.786;12.728;2024-02-23T06:34:34;7.30;99.90
5276;DHT22;2661;50.786;12.728;2024-02-23T06:37:01;7.30;99.90
5276;DHT22;2661;50.786;12.728;2024-02-23T06:39:28;7.30;99.90
5276;DHT22;2661;50.786;12.728;2024-02-23T06:41:54;7.30;99.90
5276;DHT22;2661;50.786;12.728;2024-02-23T06:44:21;7.40;99.90
5276;DHT22;2661;50.786;12.728;2024-02-23T06:46:48;7.30;99.90
5276;DHT22;2661;50.786;12.728;2024-02-23T06:49:14;7.40;99.90
5276;DHT22;2661;50.786;12.728;2024-02-23T06:51:41;7.40;99.90
5276;DHT22;2661;50.786;12.728;2024-02-23T06:54:08;7.40;99.90
5276;DHT22;2661;50.786;12.728;2024-02-23T06:56:35;7.40;99.90
5276;DHT22;2661;50.786;12.728;2024-02-23T06:59:02;7.40;99.90
5276;DHT22;2661;50.786;12.728;2024-02-23T07:01:29;7.50;99.90
5276;DHT22;2661;50.786;12.728;2024-02-23T07:03:56;7.50;99.90
5276;DHT22;2661;50.786;12.728;2024-02-23T07:06:23;7.50;99.90
5276;DHT22;2661;50.786;12.728;2024-02-23T07:08:50;7.50;99.90
5276;DHT22;2661;50.786;12.728;2024-02-23T07:11:16;7.50;99.90
5276;DHT22;2661;50.786;12.728;2024-02-23T07:13:43;7.50;99.90
5276;DHT22;2661;50.786;12.728;2024-02-23T07:16:11;7.60;99.90
5276;DHT22;2661;50.786;12.728;2024-02-23T07:18:37;7.60;99.90
5276;DHT22;2661;50.786;12.728;2024-02-23T07:21:04;7.60;99.90
5276;DHT22;2661;50.786;12.728;2024-02-23T07:23:31;7.60;99.90
5276;DHT22;2661;50.786;12.728;2024-02-23T07:25:57;7.70;99.90
5276;DHT22;2661;50.786;12.728;2024-02-23T07:28:24;7.70;99.90
5276;DHT22;2661;50.786;12.728;2024-02-23T07:30:50;7.70;99.90
5276;DHT22;2661;50.786;12.728;2024-02-23T07:33:17;7.70;99.90
5276;DHT22;2661;50.786;12.728;2024-02-23T07:35:45;7.70;99.90
5276;DHT22;2661;50.786;12.728;2024-02-23T07:38:12;7.70;99.90
5276;DHT22;2661;50.786;12.728;2024-02-23T07:40:38;7.70;99.90
5276;DHT22;2661;50.786;12.728;2024-02-23T07:43:06;7.70;99.90
5276;DHT22;2661;50.786;12.728;2024-02-23T07:45:32;7.80;99.90
5276;DHT22;2661;50.786;12.728;2024-02-23T07:48:00;7.80;99.90
5276;DHT22;2661;50.786;12.728;2024-02-23T07:50:27;7.80;99.90
5276;DHT22;2661;50.786;12.728;2024-02-23T07:52:54;7.80;99.90
5276;DHT22;2661;50.786;12.728;2024-02-23T07:55:20;7.80;99.90
5276;DHT22;2661;50.786;12.728;2024-02-23T07:57:47;7.80;99.90
5276;DHT22;2661;50.786;12.728;2024-02-23T08:00:13;7.70;99.90
5276;DHT22;2661;50.786;12.728;2024-02-23T08:02:40;7.70;99.90
5276;DHT22;2661;50.786;12.728;2024-02-23T08:05:07;7.60;99.90
5276;DHT22;2661;50.786;12.728;2024-02-23T08:07:34;7.60;99.90
5276;DHT22;2661;50.786;12.728;2024-02-23T08:10:01;7.60;99.90
5276;DHT22;2661;50.786;12.728;2024-02-23T08:12:29;7.60;99.90
5276;DHT22;2661;50.786;12.728;2024-02-23T08:14:56;7.70;99.90
5276;DHT22;2661;50.786;12.728;2024-02-23T08:17:22;7.80;99.90
5276;DHT22;2661;50.786;12.728;2024-02-23T08:19:49;7.80;99.90
5276;DHT22;2661;50.786;12.728;2024-02-23T08:22:16;7.80;99.90
5276;DHT22;2661;50.786;12.728;2024-02-23T08:24:42;7.80;99.90
5276;DHT22;2661;50.786;12.728;2024-02-23T08:27:09;7.80;99.90
5276;DHT22;2661;50.786;12.728;2024-02-23T08:29:37;7.80;99.90
5276;DHT22;2661;50.786;12.728;2024-02-23T08:32:04;7.90;99.90
5276;DHT22;2661;50.786;12.728;2024-02-23T08:34:31;7.90;99.90
5276;DHT22;2661;50.786;12.728;2024-02-23T08:36:58;7.90;99.90
5276;DHT22;2661;50.786;12.728;2024-02-23T08:39:24;8.00;99.90
5276;DHT22;2661;50.786;12.728;2024-02-23T08:41:51;8.10;99.90
5276;DHT22;2661;50.786;12.728;2024-02-23T08:44:18;8.20;99.90
5276;DHT22;2661;50.786;12.728;2024-02-23T08:46:45;8.30;99.90
5276;DHT22;2661;50.786;12.728;2024-02-23T08:49:12;8.30;99.90
5276;DHT22;2661;50.786;12.728;2024-02-23T08:51:38;8.30;99.90
5276;DHT22;2661;50.786;12.728;2024-02-23T08:54:05;8.30;99.90
5276;DHT22;2661;50.786;12.728;2024-02-23T08:56:36;8.40;99.90
5276;DHT22;2661;50.786;12.728;2024-02-23T08:59:03;8.40;99.90
5276;DHT22;2661;50.786;12.728;2024-02-23T09:01:30;8.40;99.90
5276;DHT22;2661;50.786;12.728;2024-02-23T09:03:57;8.30;99.90
5276;DHT22;2661;50.786;12.728;2024-02-23T09:06:23;8.40;99.90
5276;DHT22;2661;50.786;12.728;2024-02-23T09:08:50;8.40;99.90
5276;DHT22;2661;50.786;12.728;2024-02-23T09:11:17;8.40;99.90
5276;DHT22;2661;50.786;12.728;2024-02-23T09:13:43;8.30;99.90
5276;DHT22;2661;50.786;12.728;2024-02-23T09:16:10;8.30;99.90
5276;DHT22;2661;50.786;12.728;2024-02-23T09:18:37;8.30;99.90
5276;DHT22;2661;50.786;12.728;2024-02-23T09:21:03;8.30;99.90
5276;DHT22;2661;50.786;12.728;2024-02-23T09:23:30;8.30;99.90
5276;DHT22;2661;50.786;12.728;2024-02-23T09:25:57;8.40;99.90
5276;DHT22;2661;50.786;12.728;2024-02-23T09:28:24;8.40;99.90
5276;DHT22;2661;50.786;12.728;2024-02-23T09:30:51;8.40;99.90
5276;DHT22;2661;50.786;12.728;2024-02-23T09:33:20;8.50;99.90
5276;DHT22;2661;50.786;12.728;2024-02-23T09:35:46;8.60;99.90
5276;DHT22;2661;50.786;12.728;2024-02-23T09:38:13;8.60;99.90
5276;DHT22;2661;50.786;12.728;2024-02-23T09:40:40;8.60;99.90
5276;DHT22;2661;50.786;12.728;2024-02-23T09:43:07;8.70;99.90
5276;DHT22;2661;50.786;12.728;2024-02-23T09:45:34;8.70;99.90
5276;DHT22;2661;50.786;12.728;2024-02-23T09:48:00;8.80;99.90
5276;DHT22;2661;50.786;12.728;2024-02-23T09:50:29;8.90;99.90
5276;DHT22;2661;50.786;12.728;2024-02-23T09:52:57;9.00;99.90
5276;DHT22;2661;50.786;12.728;2024-02-23T09:55:24;9.00;99.90
5276;DHT22;2661;50.786;12.728;2024-02-23T09:57:51;9.00;99.90
5276;DHT22;2661;50.786;12.728;2024-02-23T10:00:21;9.00;99.90
5276;DHT22;2661;50.786;12.728;2024-02-23T10:02:49;8.80;99.90
5276;DHT22;2661;50.786;12.728;2024-02-23T10:05:17;8.80;99.90
5276;DHT22;2661;50.786;12.728;2024-02-23T10:07:44;8.80;99.90
5276;DHT22;2661;50.786;12.728;2024-02-23T10:10:11;8.90;99.90
5276;DHT22;2661;50.786;12.728;2024-02-23T10:12:37;8.90;99.90
5276;DHT22;2661;50.786;12.728;2024-02-23T10:15:04;9.00;99.90
5276;DHT22;2661;50.786;12.728;2024-02-23T10:17:31;9.00;99.90
5276;DHT22;2661;50.786;12.728;2024-02-23T10:20:02;9.00;99.90
5276;DHT22;2661;50.786;12.728;2024-02-23T10:22:31;9.00;99.90
5276;DHT22;2661;50.786;12.728;2024-02-23T10:24:58;9.10;99.90
5276;DHT22;2661;50.786;12.728;2024-02-23T10:27:25;9.10;99.90
5276;DHT22;2661;50.786;12.728;2024-02-23T10:29:52;9.10;99.90
5276;DHT22;2661;50.786;12.728;2024-02-23T10:32:20;9.10;99.90
5276;DHT22;2661;50.786;12.728;2024-02-23T10:34:48;9.10;99.90
5276;DHT22;2661;50.786;12.728;2024-02-23T10:37:17;9.20;99.90
5276;DHT22;2661;50.786;12.728;2024-02-23T10:39:44;9.20;99.90
5276;DHT22;2661;50.786;12.728;2024-02-23T10:42:12;9.20;99.90
5276;DHT22;2661;50.786;12.728;2024-02-23T10:44:39;9.20;99.90
5276;DHT22;2661;50.786;12.728;2024-02-23T10:47:05;9.20;99.90
5276;DHT22;2661;50.786;12.728;2024-02-23T10:49:33;9.20;99.90
5276;DHT22;2661;50.786;12.728;2024-02-23T10:52:01;9.30;99.90
5276;DHT22;2661;50.786;12.728;2024-02-23T10:54:28;9.20;99.90
5276;DHT22;2661;50.786;12.728;2024-02-23T10:56:55;9.30;99.90
5276;DHT22;2661;50.786;12.728;2024-02-23T10:59:22;9.20;99.90
5276;DHT22;2661;50.786;12.728;2024-02-23T11:01:50;9.10;99.90
5276;DHT22;2661;50.786;12.728;2024-02-23T11:04:19;9.10;99.90
5276;DHT22;2661;50.786;12.728;2024-02-23T11:06:53;9.10;99.90
5276;DHT22;2661;50.786;12.728;2024-02-23T11:09:20;9.10;99.90
5276;DHT22;2661;50.786;12.728;2024-02-23T11:11:51;9.00;99.90
5276;DHT22;2661;50.786;12.728;2024-02-23T11:14:18;9.00;99.90
5276;DHT22;2661;50.786;12.728;2024-02-23T11:16:55;9.00;99.90
5276;DHT22;2661;50.786;12.728;2024-02-23T11:19:22;9.00;99.90
5276;DHT22;2661;50.786;12.728;2024-02-23T11:21:58;9.00;99.90
5276;DHT22;2661;50.786;12.728;2024-02-23T11:24:25;9.00;99.90
5276;DHT22;2661;50.786;12.728;2024-02-23T11:26:57;9.00;99.90
5276;DHT22;2661;50.786;12.728;2024-02-23T11:29:27;9.00;99.90
5276;DHT22;2661;50.786;12.728;2024-02-23T11:31:55;9.10;99.90
5276;DHT22;2661;50.786;12.728;2024-02-23T11:34:27;9.10;99.90
5276;DHT22;2661;50.786;12.728;2024-02-23T11:36:54;9.10;99.90
5276;DHT22;2661;50.786;12.728;2024-02-23T11:39:21;9.10;99.90
5276;DHT22;2661;50.786;12.728;2024-02-23T11:41:50;9.10;99.90
5276;DHT22;2661;50.786;12.728;2024-02-23T11:44:17;9.00;99.90
5276;DHT22;2661;50.786;12.728;2024-02-23T11:46:44;9.00;99.90
5276;DHT22;2661;50.786;12.728;2024-02-23T11:49:16;9.00;99.90
5276;DHT22;2661;50.786;12.728;2024-02-23T11:51:43;8.90;99.90
5276;DHT22;2661;50.786;12.728;2024-02-23T11:54:11;8.90;99.90
5276;DHT22;2661;50.786;12.728;2024-02-23T11:56:38;8.90;99.90
5276;DHT22;2661;50.786;12.728;2024-02-23T11:59:05;8.90;99.90
5276;DHT22;2661;50.786;12.728;2024-02-23T12:01:32;9.00;99.90
5276;DHT22;2661;50.786;12.728;2024-02-23T12:03:59;9.00;99.90
5276;DHT22;2661;50.786;12.728;2024-02-23T12:06:26;9.00;99.90
5276;DHT22;2661;50.786;12.728;2024-02-23T12:08:56;9.00;99.90
5276;DHT22;2661;50.786;12.728;2024-02-23T12:11:23;9.10;99.90
5276;DHT22;2661;50.786;12.728;2024-02-23T12:13:50;9.20;99.90
5276;DHT22;2661;50.786;12.728;2024-02-23T12:16:17;9.20;99.90
5276;DHT22;2661;50.786;12.728;2024-02-23T12:18:44;9.20;99.90
5276;DHT22;2661;50.786;12.728;2024-02-23T12:21:11;9.20;99.90
5276;DHT22;2661;50.786;12.728;2024-02-23T12:23:39;9.20;99.90
5276;DHT22;2661;50.786;12.728;2024-02-23T12:26:06;9.20;99.90
5276;DHT22;2661;50.786;12.728;2024-02-23T12:28:33;9.20;99.90
5276;DHT22;2661;50.786;12.728;2024-02-23T12:31:00;9.20;99.90
5276;DHT22;2661;50.786;12.728;2024-02-23T12:33:27;9.20;99.90
5276;DHT22;2661;50.786;12.728;2024-02-23T12:35:55;9.20;99.90
5276;DHT22;2661;50.786;12.728;2024-02-23T12:38:22;9.10;99.90
5276;DHT22;2661;50.786;12.728;2024-02-23T12:40:49;9.20;99.90
5276;DHT22;2661;50.786;12.728;2024-02-23T12:43:16;9.20;99.90
5276;DHT22;2661;50.786;12.728;2024-02-23T12:45:43;9.10;99.90
5276;DHT22;2661;50.786;12.728;2024-02-23T12:48:11;9.10;99.90
5276;DHT22;2661;50.786;12.728;2024-02-23T12:50:38;9.10;99.90
5276;DHT22;2661;50.786;12.728;2024-02-23T12:53:05;9.10;99.90
5276;DHT22;2661;50.786;12.728;2024-02-23T12:55:31;9.10;99.90
5276;DHT22;2661;50.786;12.728;2024-02-23T12:57:58;9.10;99.90
5276;DHT22;2661;50.786;12.728;2024-02-23T13:00:25;9.20;99.90
5276;DHT22;2661;50.786;12.728;2024-02-23T13:02:51;9.10;99.90
5276;DHT22;2661;50.786;12.728;2024-02-23T13:05:18;9.20;99.90
5276;DHT22;2661;50.786;12.728;2024-02-23T13:07:45;9.30;99.90
5276;DHT22;2661;50.786;12.728;2024-02-23T13:10:12;9.30;99.90
5276;DHT22;2661;50.786;12.728;2024-02-23T13:12:39;9.30;99.90
5276;DHT22;2661;50.786;12.728;2024-02-23T13:15:06;9.40;99.90
5276;DHT22;2661;50.786;12.728;2024-02-23T13:17:35;9.30;99.90
5276;DHT22;2661;50.786;12.728;2024-02-23T13:20:02;9.30;99.90
5276;DHT22;2661;50.786;12.728;2024-02-23T13:22:37;9.30;99.90
5276;DHT22;2661;50.786;12.728;2024-02-23T13:25:04;9.20;99.90
5276;DHT22;2661;50.786;12.728;2024-02-23T13:27:31;9.20;99.90
5276;DHT22;2661;50.786;12.728;2024-02-23T13:29:57;9.20;99.90
5276;DHT22;2661;50.786;12.728;2024-02-23T13:32:24;9.20;99.90
5276;DHT22;2661;50.786;12.728;2024-02-23T13:34:50;9.20;99.90
5276;DHT22;2661;50.786;12.728;2024-02-23T13:37:18;9.10;99.90
5276;DHT22;2661;50.786;12.728;2024-02-23T13:39:45;9.10;99.90
5276;DHT22;2661;50.786;12.728;2024-02-23T13:42:12;9.00;99.90
5276;DHT22;2661;50.786;12.728;2024-02-23T13:44:38;9.00;99.90
5276;DHT22;2661;50.786;12.728;2024-02-23T13:47:05;9.00;99.90
5276;DHT22;2661;50.786;12.728;2024-02-23T13:49:32;9.00;99.90
5276;DHT22;2661;50.786;12.728;2024-02-23T13:51:58;9.00;99.90
5276;DHT22;2661;50.786;12.728;2024-02-23T13:54:25;8.90;99.90
5276;DHT22;2661;50.786;12.728;2024-02-23T13:56:52;8.90;99.90
5276;DHT22;2661;50.786;12.728;2024-02-23T13:59:18;8.90;99.90
5276;DHT22;2661;50.786;12.728;2024-02-23T14:01:45;8.90;99.90
5276;DHT22;2661;50.786;12.728;2024-02-23T14:04:11;8.80;99.90
5276;DHT22;2661;50.786;12.728;2024-02-23T14:06:38;8.80;99.90
5276;DHT22;2661;50.786;12.728;2024-02-23T14:09:05;8.80;99.90
5276;DHT22;2661;50.786;12.728;2024-02-23T14:11:32;8.80;99.90
5276;DHT22;2661;50.786;12.728;2024-02-23T14:13:59;8.80;99.90
5276;DHT22;2661;50.786;12.728;2024-02-23T14:16:25;8.80;99.90
5276;DHT22;2661;50.786;12.728;2024-02-23T14:18:52;8.70;99.90
5276;DHT22;2661;50.786;12.728;2024-02-23T14:21:19;8.70;99.90
5276;DHT22;2661;50.786;12.728;2024-02-23T14:23:47;8.70;99.90
5276;DHT22;2661;50.786;12.728;2024-02-23T14:26:14;8.70;99.90
5276;DHT22;2661;50.786;12.728;2024-02-23T14:28:40;8.70;99.90
5276;DHT22;2661;50.786;12.728;2024-02-23T14:31:07;8.60;99.90
5276;DHT22;2661;50.786;12.728;2024-02-23T14:33:34;8.50;99.90
5276;DHT22;2661;50.786;12.728;2024-02-23T14:36:01;8.50;99.90
5276;DHT22;2661;50.786;12.728;2024-02-23T14:38:27;8.50;99.90
5276;DHT22;2661;50.786;12.728;2024-02-23T14:40:57;8.50;99.90
5276;DHT22;2661;50.786;12.728;2024-02-23T14:43:23;8.40;99.90
5276;DHT22;2661;50.786;12.728;2024-02-23T14:45:50;8.50;99.90
5276;DHT22;2661;50.786;12.728;2024-02-23T14:48:19;8.50;99.90
5276;DHT22;2661;50.786;12.728;2024-02-23T14:50:45;8.50;99.90
5276;DHT22;2661;50.786;12.728;2024-02-23T14:53:12;8.50;99.90
5276;DHT22;2661;50.786;12.728;2024-02-23T14:55:39;8.40;99.90
5276;DHT22;2661;50.786;12.728;2024-02-23T14:58:05;8.50;99.90
5276;DHT22;2661;50.786;12.728;2024-02-23T15:00:32;8.40;99.90
5276;DHT22;2661;50.786;12.728;2024-02-23T15:02:59;8.40;99.90
5276;DHT22;2661;50.786;12.728;2024-02-23T15:05:26;8.40;99.90
5276;DHT22;2661;50.786;12.728;2024-02-23T15:07:53;8.30;99.90
5276;DHT22;2661;50.786;12.728;2024-02-23T15:10:19;8.30;99.90
5276;DHT22;2661;50.786;12.728;2024-02-23T15:12:46;8.30;99.90
5276;DHT22;2661;50.786;12.728;2024-02-23T15:15:13;8.40;99.90
5276;DHT22;2661;50.786;12.728;2024-02-23T15:17:40;8.40;99.90
5276;DHT22;2661;50.786;12.728;2024-02-23T15:20:09;8.40;99.90
5276;DHT22;2661;50.786;12.728;2024-02-23T15:22:35;8.30;99.90
5276;DHT22;2661;50.786;12.728;2024-02-23T15:25:02;8.30;99.90
5276;DHT22;2661;50.786;12.728;2024-02-23T15:27:30;8.30;99.90
5276;DHT22;2661;50.786;12.728;2024-02-23T15:29:57;8.20;99.90
5276;DHT22;2661;50.786;12.728;2024-02-23T15:32:23;8.20;99.90
5276;DHT22;2661;50.786;12.728;2024-02-23T15:34:50;8.20;99.90
5276;DHT22;2661;50.786;12.728;2024-02-23T15:37:17;8.20;99.90
5276;DHT22;2661;50.786;12.728;2024-02-23T15:39:44;8.20;99.90
5276;DHT22;2661;50.786;12.728;2024-02-23T15:42:13;8.20;99.90
5276;DHT22;2661;50.786;12.728;2024-02-23T15:44:40;8.10;99.90
5276;DHT22;2661;50.786;12.728;2024-02-23T15:47:06;8.10;99.90
5276;DHT22;2661;50.786;12.728;2024-02-23T15:49:33;8.10;99.90
5276;DHT22;2661;50.786;12.728;2024-02-23T15:52:19;8.10;99.90
5276;DHT22;2661;50.786;12.728;2024-02-23T15:54:46;8.00;99.90
5276;DHT22;2661;50.786;12.728;2024-02-23T15:57:13;8.00;99.90
5276;DHT22;2661;50.786;12.728;2024-02-23T15:59:40;8.00;99.90
5276;DHT22;2661;50.786;12.728;2024-02-23T16:02:07;7.90;99.90